createdAt,value
2018-10-05T00:00:20.330Z,10.07
2018-10-05T00:02:49.340Z,7.57
2018-10-05T00:05:18.383Z,8.47
2018-10-05T00:07:47.412Z,9.03
2018-10-05T00:10:16.597Z,11.40
2018-10-05T00:12:45.677Z,7.97
2018-10-05T00:15:14.683Z,7.03
2018-10-05T00:17:43.764Z,13.80
2018-10-05T00:20:12.777Z,7.90
2018-10-05T00:22:41.816Z,9.50
2018-10-05T00:25:10.933Z,6.90
2018-10-05T00:27:39.967Z,7.30
2018-10-05T00:30:09.005Z,5.47
2018-10-05T00:32:38.075Z,6.77
2018-10-05T00:35:07.124Z,7.20
2018-10-05T00:37:37.405Z,6.00
2018-10-05T00:40:06.638Z,8.50
2018-10-05T00:42:35.880Z,9.27
2018-10-05T00:45:05.287Z,5.40
2018-10-05T00:47:34.504Z,6.10
2018-10-05T00:50:03.553Z,7.90
2018-10-05T00:52:32.599Z,7.60
2018-10-05T00:55:01.666Z,7.95
2018-10-05T00:57:30.781Z,8.47
2018-10-05T00:59:59.799Z,6.80
2018-10-05T01:02:28.833Z,9.65
2018-10-05T01:04:57.866Z,7.70
2018-10-05T01:07:26.921Z,7.47
2018-10-05T01:09:55.993Z,8.47
2018-10-05T01:12:25.014Z,9.47
2018-10-05T01:14:54.088Z,9.20
2018-10-05T01:17:23.203Z,10.13
2018-10-05T01:19:52.267Z,8.40
2018-10-05T01:22:21.329Z,12.13
2018-10-05T01:24:50.355Z,8.83
2018-10-05T01:27:19.356Z,8.07
2018-10-05T01:29:48.399Z,8.67
2018-10-05T01:32:17.441Z,6.33
2018-10-05T01:34:46.447Z,6.57
2018-10-05T01:37:15.480Z,6.27
2018-10-05T01:39:44.554Z,8.53
2018-10-05T01:42:13.691Z,6.03
2018-10-05T01:44:42.752Z,8.43
2018-10-05T01:47:11.848Z,12.07
2018-10-05T01:49:41.549Z,8.47
2018-10-05T01:52:11.105Z,10.68
2018-10-05T01:54:40.235Z,10.70
2018-10-05T01:57:09.276Z,10.93
2018-10-05T01:59:38.337Z,13.10
2018-10-05T02:02:08.129Z,9.58
2018-10-05T02:04:37.170Z,7.80
2018-10-05T02:07:06.246Z,7.73
2018-10-05T02:09:35.334Z,7.97
2018-10-05T02:12:04.609Z,7.57
2018-10-05T02:14:33.748Z,11.23
2018-10-05T02:17:02.920Z,10.17
2018-10-05T02:19:31.937Z,10.07
2018-10-05T02:22:01.001Z,13.43
2018-10-05T02:24:30.120Z,8.30
2018-10-05T02:26:59.151Z,10.68
2018-10-05T02:29:28.274Z,9.90
2018-10-05T02:31:57.347Z,10.80
2018-10-05T02:34:26.401Z,10.43
2018-10-05T02:36:55.480Z,12.10
2018-10-05T02:39:24.586Z,8.30
2018-10-05T02:41:53.620Z,9.60
2018-10-05T02:44:22.672Z,10.58
2018-10-05T02:46:51.730Z,14.07
2018-10-05T02:49:20.792Z,12.00
2018-10-05T02:51:49.803Z,10.27
2018-10-05T02:54:18.850Z,12.67
2018-10-05T02:56:47.954Z,7.23
2018-10-05T02:59:16.979Z,9.83
2018-10-05T03:02:03.086Z,10.50
2018-10-05T03:04:32.157Z,8.67
2018-10-05T03:07:01.184Z,8.63
2018-10-05T03:09:30.370Z,7.37
2018-10-05T03:11:59.865Z,6.37
2018-10-05T03:14:29.135Z,8.20
2018-10-05T03:16:58.306Z,5.30
2018-10-05T03:19:27.367Z,6.77
2018-10-05T03:21:56.796Z,15.43
2018-10-05T03:24:25.976Z,7.67
2018-10-05T03:26:55.041Z,8.60
2018-10-05T03:29:24.094Z,5.75
2018-10-05T03:31:53.225Z,4.73
2018-10-05T03:34:22.232Z,11.30
2018-10-05T03:36:51.271Z,8.30
2018-10-05T03:39:20.317Z,10.63
2018-10-05T03:41:49.316Z,5.73
2018-10-05T03:44:18.336Z,9.40
2018-10-05T03:46:47.413Z,7.50
2018-10-05T03:49:16.433Z,5.77
2018-10-05T03:51:45.457Z,10.80
2018-10-05T03:54:14.513Z,7.85
2018-10-05T03:56:43.592Z,4.67
2018-10-05T03:59:12.641Z,6.40
2018-10-05T04:01:41.738Z,6.80
2018-10-05T04:04:11.197Z,7.17
2018-10-05T04:06:40.262Z,7.33
2018-10-05T04:09:10.693Z,6.23
2018-10-05T04:11:39.719Z,7.60
2018-10-05T04:14:08.796Z,8.17
2018-10-05T04:16:38.031Z,8.53
2018-10-05T04:19:07.067Z,6.43
2018-10-05T04:21:36.076Z,7.58
2018-10-05T04:24:05.124Z,5.87
2018-10-05T04:26:34.138Z,8.10
2018-10-05T04:29:03.128Z,8.93
2018-10-05T04:31:33.606Z,9.07
2018-10-05T04:34:02.761Z,7.47
2018-10-05T04:36:31.823Z,5.70
2018-10-05T04:39:00.884Z,10.90
2018-10-05T04:41:29.966Z,11.93
2018-10-05T04:43:58.958Z,8.83
2018-10-05T04:46:27.970Z,6.57
2018-10-05T04:48:56.950Z,10.47
2018-10-05T04:51:26.111Z,14.77
2018-10-05T04:53:55.559Z,6.00
2018-10-05T04:56:24.597Z,6.93
2018-10-05T04:58:53.640Z,6.90
2018-10-05T05:01:22.740Z,6.75
2018-10-05T05:03:51.873Z,8.23
2018-10-05T05:06:21.003Z,7.83
2018-10-05T05:08:50.131Z,7.83
2018-10-05T05:11:19.160Z,6.90
2018-10-05T05:13:48.511Z,6.90
2018-10-05T05:16:17.582Z,7.10
2018-10-05T05:18:46.605Z,8.77
2018-10-05T05:21:15.656Z,5.97
2018-10-05T05:23:45.664Z,6.47
2018-10-05T05:26:14.712Z,8.73
2018-10-05T05:28:43.753Z,8.80
2018-10-05T05:31:12.847Z,10.45
2018-10-05T05:33:42.048Z,8.27
2018-10-05T05:36:10.960Z,5.93
2018-10-05T05:38:40.035Z,7.17
2018-10-05T05:41:09.113Z,9.57
2018-10-05T05:43:38.148Z,5.70
2018-10-05T05:46:08.221Z,7.50
2018-10-05T05:48:37.742Z,8.33
2018-10-05T05:51:07.329Z,7.50
2018-10-05T05:53:37.148Z,6.00
2018-10-05T05:56:06.783Z,7.73
2018-10-05T05:58:37.502Z,7.53
2018-10-05T06:01:08.358Z,11.53
2018-10-05T06:03:39.108Z,10.63
2018-10-05T06:06:08.662Z,10.30
2018-10-05T06:08:38.704Z,6.20
2018-10-05T06:11:08.797Z,6.87
2018-10-05T06:13:38.062Z,8.10
2018-10-05T06:16:07.994Z,6.37
2018-10-05T06:18:37.362Z,5.93
2018-10-05T06:21:06.649Z,8.00
2018-10-05T06:23:35.961Z,6.15
2018-10-05T06:26:05.294Z,9.13
2018-10-05T06:28:34.565Z,6.28
2018-10-05T06:31:03.853Z,9.50
2018-10-05T06:33:33.033Z,12.73
2018-10-05T06:36:02.372Z,7.28
2018-10-05T06:38:32.187Z,6.08
2018-10-05T06:41:01.343Z,7.23
2018-10-05T06:43:30.877Z,5.37
2018-10-05T06:46:00.538Z,5.73
2018-10-05T06:48:29.861Z,6.03
2018-10-05T06:50:59.082Z,5.70
2018-10-05T06:53:28.235Z,5.20
2018-10-05T06:55:57.371Z,5.97
2018-10-05T06:58:26.514Z,12.27
2018-10-05T07:00:55.655Z,13.43
2018-10-05T07:03:25.237Z,13.53
2018-10-05T07:05:55.273Z,16.80
2018-10-05T07:08:24.440Z,20.43
2018-10-05T07:10:54.619Z,13.30
2018-10-05T07:13:24.735Z,16.82
2018-10-05T07:15:55.921Z,14.55
2018-10-05T07:18:25.575Z,10.20
2018-10-05T07:20:54.786Z,15.67
2018-10-05T07:23:24.221Z,9.98
2018-10-05T07:25:53.342Z,16.97
2018-10-05T07:28:22.760Z,14.83
2018-10-05T07:30:51.781Z,15.80
2018-10-05T07:33:20.858Z,17.40
2018-10-05T07:35:50.608Z,20.10
2018-10-05T07:38:19.856Z,14.97
2018-10-05T07:40:49.132Z,16.90
2018-10-05T07:43:18.239Z,16.57
2018-10-05T07:45:47.801Z,21.80
2018-10-05T07:48:17.179Z,17.15
2018-10-05T07:50:47.149Z,12.63
2018-10-05T07:53:16.488Z,11.90
2018-10-05T07:55:45.698Z,22.93
2018-10-05T07:58:15.254Z,25.07
2018-10-05T08:00:44.631Z,22.33
2018-10-05T08:03:13.999Z,18.07
2018-10-05T08:05:43.229Z,20.37
2018-10-05T08:08:12.969Z,22.37
2018-10-05T08:10:42.467Z,17.20
2018-10-05T08:13:11.817Z,10.37
2018-10-05T08:15:41.574Z,12.28
2018-10-05T08:18:10.852Z,16.43
2018-10-05T08:20:40.083Z,11.97
2018-10-05T08:23:09.505Z,8.20
2018-10-05T08:25:38.736Z,12.60
2018-10-05T08:28:07.959Z,13.00
2018-10-05T08:30:37.117Z,8.00
2018-10-05T08:33:06.647Z,7.33
2018-10-05T08:35:35.964Z,9.70
2018-10-05T08:38:05.111Z,9.95
2018-10-05T08:40:34.390Z,8.03
2018-10-05T08:43:04.343Z,10.37
2018-10-05T08:45:33.844Z,9.83
2018-10-05T08:48:02.893Z,7.37
2018-10-05T08:50:31.931Z,7.40
2018-10-05T08:53:01.064Z,11.65
2018-10-05T08:55:30.361Z,18.70
2018-10-05T08:57:59.517Z,16.67
2018-10-05T09:00:28.795Z,24.27
2018-10-05T09:02:57.985Z,19.53
2018-10-05T09:05:27.180Z,21.85
2018-10-05T09:08:01.337Z,22.93
2018-10-05T09:10:30.984Z,29.33
2018-10-05T09:13:00.306Z,22.62
2018-10-05T09:15:29.598Z,26.93
2018-10-05T09:17:59.009Z,10.77
2018-10-05T09:20:28.227Z,7.67
2018-10-05T09:22:57.511Z,11.07
2018-10-05T09:25:26.605Z,5.78
2018-10-05T09:27:55.921Z,10.35
2018-10-05T09:30:25.985Z,8.30
2018-10-05T09:32:55.608Z,7.10
2018-10-05T09:35:25.278Z,5.40
2018-10-05T09:37:55.768Z,6.90
2018-10-05T09:40:25.316Z,22.07
2018-10-05T09:42:55.277Z,27.00
2018-10-05T09:45:27.591Z,24.13
2018-10-05T09:47:57.268Z,19.02
2018-10-05T09:50:26.576Z,16.83
2018-10-05T09:57:53.752Z,20.10
2018-10-05T10:00:28.562Z,16.17
2018-10-05T10:03:00.460Z,9.63
2018-10-05T10:05:29.731Z,23.57
2018-10-05T10:07:59.118Z,23.85
2018-10-05T10:10:28.690Z,19.23
2018-10-05T10:12:58.196Z,15.30
2018-10-05T10:15:28.606Z,20.70
2018-10-05T10:17:57.971Z,19.93
2018-10-05T10:20:27.756Z,23.62
2018-10-05T10:22:57.207Z,17.83
2018-10-05T10:25:26.661Z,14.97
2018-10-05T10:27:55.962Z,21.60
2018-10-05T10:30:25.520Z,13.03
2018-10-05T10:32:55.055Z,14.50
2018-10-05T10:35:24.537Z,10.67
2018-10-05T10:37:53.856Z,12.57
2018-10-05T10:40:23.227Z,17.65
2018-10-05T10:42:53.924Z,10.63
2018-10-05T10:45:23.782Z,15.40
2018-10-05T10:47:53.597Z,13.73
2018-10-05T10:50:23.412Z,17.17
2018-10-05T10:52:53.001Z,16.67
2018-10-05T10:55:22.685Z,8.65
2018-10-05T10:57:51.990Z,16.07
2018-10-05T11:00:23.256Z,10.33
2018-10-05T11:02:52.613Z,12.43
2018-10-05T11:05:21.869Z,4.77
2018-10-05T11:07:51.224Z,11.50
2018-10-05T11:10:21.011Z,6.10
2018-10-05T11:12:50.952Z,13.57
2018-10-05T11:15:21.976Z,8.83
2018-10-05T11:17:51.457Z,9.47
2018-10-05T11:20:22.546Z,5.97
2018-10-05T11:22:52.628Z,7.83
2018-10-05T11:25:22.370Z,7.97
2018-10-05T11:27:52.019Z,10.30
2018-10-05T11:30:22.503Z,11.97
2018-10-05T11:32:52.228Z,6.63
2018-10-05T11:35:21.327Z,11.70
2018-10-05T11:37:50.598Z,8.73
2018-10-05T11:40:20.861Z,9.27
2018-10-05T11:42:50.637Z,9.63
2018-10-05T11:45:19.929Z,7.83
2018-10-05T11:47:49.195Z,6.22
2018-10-05T11:50:18.723Z,5.23
2018-10-05T11:52:48.010Z,6.00
2018-10-05T11:55:17.486Z,9.70
2018-10-05T11:57:46.729Z,5.75
2018-10-05T12:00:18.207Z,9.33
2018-10-05T12:02:48.171Z,8.80
2018-10-05T12:05:17.564Z,9.23
2018-10-05T12:07:46.898Z,10.50
2018-10-05T12:10:16.175Z,6.12
2018-10-05T12:12:45.471Z,8.00
2018-10-05T12:15:14.954Z,5.57
2018-10-05T12:17:44.479Z,6.67
2018-10-05T12:20:14.186Z,9.73
2018-10-05T12:22:43.645Z,6.85
2018-10-05T12:25:13.037Z,5.33
2018-10-05T12:27:42.738Z,5.20
2018-10-05T12:30:12.142Z,6.87
2018-10-05T12:32:41.359Z,8.37
2018-10-05T12:35:10.651Z,7.80
2018-10-05T12:37:40.003Z,8.23
2018-10-05T12:40:09.311Z,11.43
2018-10-05T12:42:38.427Z,9.63
2018-10-05T12:45:07.739Z,10.33
2018-10-05T12:47:37.274Z,15.27
2018-10-05T12:50:07.128Z,9.70
2018-10-05T12:52:36.215Z,10.23
2018-10-05T12:55:05.773Z,10.87
2018-10-05T12:57:35.030Z,8.70
2018-10-05T13:00:04.438Z,10.43
2018-10-05T13:02:33.606Z,5.07
2018-10-05T13:05:03.142Z,7.67
2018-10-05T13:07:32.371Z,7.00
2018-10-05T13:10:01.931Z,10.03
2018-10-05T13:12:31.249Z,7.50
2018-10-05T13:15:00.515Z,7.07
2018-10-05T13:17:29.825Z,10.63
2018-10-05T13:19:59.303Z,7.60
2018-10-05T13:22:28.461Z,6.30
2018-10-05T13:24:57.489Z,9.45
2018-10-05T13:27:26.744Z,9.23
2018-10-05T13:29:56.288Z,9.00
2018-10-05T13:32:25.478Z,12.30
2018-10-05T13:34:54.764Z,8.60
2018-10-05T13:37:24.327Z,10.57
2018-10-05T13:39:53.962Z,7.27
2018-10-05T13:42:23.273Z,8.47
2018-10-05T13:44:52.544Z,5.42
2018-10-05T13:47:22.003Z,11.78
2018-10-05T13:49:51.407Z,8.83
2018-10-05T13:52:21.316Z,13.25
2018-10-05T13:54:50.503Z,11.60
2018-10-05T13:57:19.694Z,7.22
2018-10-05T13:59:49.164Z,7.85
2018-10-05T14:02:18.605Z,10.33
2018-10-05T14:04:47.981Z,6.47
2018-10-05T14:07:17.563Z,10.37
2018-10-05T14:09:47.566Z,7.63
2018-10-05T14:12:17.174Z,11.80
2018-10-05T14:14:46.553Z,9.85
2018-10-05T14:17:15.995Z,7.83
2018-10-05T14:19:45.373Z,10.40
2018-10-05T14:22:14.686Z,8.33
2018-10-05T14:24:44.191Z,9.03
2018-10-05T14:27:13.428Z,12.80
2018-10-05T14:29:42.667Z,11.03
2018-10-05T14:32:12.658Z,10.60
2018-10-05T14:34:42.078Z,7.97
2018-10-05T14:37:11.638Z,9.50
2018-10-05T14:39:41.056Z,7.33
2018-10-05T14:42:10.504Z,8.33
2018-10-05T14:44:39.871Z,5.05
2018-10-05T14:47:09.434Z,10.80
2018-10-05T14:49:38.697Z,11.27
2018-10-05T14:52:08.106Z,10.10
2018-10-05T14:54:37.507Z,8.78
2018-10-05T14:57:06.814Z,10.23
2018-10-05T14:59:36.189Z,15.93
2018-10-05T15:02:06.585Z,7.28
2018-10-05T15:04:35.774Z,14.90
2018-10-05T15:07:12.331Z,13.70
2018-10-05T15:09:41.573Z,8.37
2018-10-05T15:12:10.865Z,13.10
2018-10-05T15:14:40.320Z,12.78
2018-10-05T15:17:09.736Z,15.25
2018-10-05T15:19:39.160Z,8.93
2018-10-05T15:22:08.500Z,15.90
2018-10-05T15:24:38.005Z,8.60
2018-10-05T15:27:08.194Z,11.63
2018-10-05T15:29:37.618Z,13.67
2018-10-05T15:32:06.768Z,15.73
2018-10-05T15:34:36.173Z,8.93
2018-10-05T15:37:05.579Z,8.90
2018-10-05T15:39:34.816Z,14.03
2018-10-05T15:42:04.129Z,10.90
2018-10-05T15:44:36.504Z,13.93
2018-10-05T15:47:14.507Z,8.90
2018-10-05T15:49:44.384Z,14.60
2018-10-05T15:52:13.872Z,12.23
2018-10-05T15:54:43.109Z,23.80
2018-10-05T15:57:12.502Z,6.23
2018-10-05T15:59:42.582Z,13.63
2018-10-05T16:02:11.881Z,10.23
2018-10-05T16:04:41.338Z,11.65
2018-10-05T16:07:10.572Z,15.93
2018-10-05T16:09:39.742Z,11.43
2018-10-05T16:12:09.161Z,9.07
2018-10-05T16:14:39.949Z,8.30
2018-10-05T16:17:09.139Z,8.70
2018-10-05T16:19:38.370Z,12.70
2018-10-05T16:22:08.147Z,13.27
2018-10-05T16:24:40.902Z,11.45
2018-10-05T16:27:11.616Z,7.92
2018-10-05T16:29:40.637Z,7.08
2018-10-05T16:32:10.521Z,11.27
2018-10-05T16:34:40.612Z,6.37
2018-10-05T16:37:11.004Z,13.33
2018-10-05T16:39:40.634Z,10.50
2018-10-05T16:42:09.912Z,10.40
2018-10-05T16:44:40.250Z,16.87
2018-10-05T16:47:09.829Z,10.83
2018-10-05T16:49:39.110Z,11.68
2018-10-05T16:52:08.386Z,9.75
2018-10-05T16:54:37.956Z,7.83
2018-10-05T16:57:07.084Z,7.97
2018-10-05T16:59:36.197Z,10.40
2018-10-05T17:02:05.413Z,11.33
2018-10-05T17:04:35.156Z,8.30
2018-10-05T17:07:05.049Z,6.60
2018-10-05T17:09:34.316Z,6.47
2018-10-05T17:14:38.955Z,11.67
2018-10-05T17:17:08.825Z,11.77
2018-10-05T17:19:38.026Z,9.73
2018-10-05T17:22:07.261Z,9.55
2018-10-05T17:24:37.190Z,9.00
2018-10-05T17:27:06.597Z,7.17
2018-10-05T17:29:36.604Z,9.73
2018-10-05T17:32:06.086Z,6.43
2018-10-05T17:34:35.208Z,6.80
2018-10-05T17:37:04.559Z,5.87
2018-10-05T17:39:34.071Z,7.17
2018-10-05T17:42:03.409Z,5.12
2018-10-05T17:44:32.684Z,8.20
2018-10-05T17:47:02.187Z,6.63
2018-10-05T17:49:31.554Z,4.80
2018-10-05T17:52:00.934Z,5.07
2018-10-05T17:54:30.729Z,7.90
2018-10-05T17:57:00.150Z,5.58
2018-10-05T17:59:29.602Z,3.83
2018-10-05T18:01:58.906Z,6.30
2018-10-05T18:04:28.929Z,4.77
2018-10-05T18:09:39.285Z,5.13
2018-10-05T18:12:09.949Z,7.72
2018-10-05T18:14:40.009Z,6.53
2018-10-05T18:17:09.375Z,9.00
2018-10-05T18:19:38.932Z,6.03
2018-10-05T18:22:08.582Z,6.30
2018-10-05T18:24:38.912Z,6.20
2018-10-05T18:27:08.683Z,6.28
2018-10-05T18:29:38.469Z,5.90
2018-10-05T18:32:08.274Z,4.80
2018-10-05T18:34:38.126Z,4.12
2018-10-05T18:37:07.345Z,4.67
2018-10-05T18:39:36.753Z,9.10
2018-10-05T18:42:06.109Z,3.83
2018-10-05T18:44:35.491Z,5.17
2018-10-05T18:47:04.689Z,7.50
2018-10-05T18:49:33.765Z,6.43
2018-10-05T18:52:03.033Z,8.67
2018-10-05T18:54:33.791Z,9.57
2018-10-05T18:57:19.160Z,7.85
2018-10-05T18:59:48.888Z,8.13
2018-10-05T19:04:54.569Z,8.03
2018-10-05T19:07:23.961Z,7.65
2018-10-05T19:09:53.433Z,8.30
2018-10-05T19:12:24.864Z,7.60
2018-10-05T19:14:55.627Z,7.53
2018-10-05T19:17:25.645Z,8.60
2018-10-05T19:19:55.289Z,9.80
2018-10-05T19:22:25.252Z,8.40
2018-10-05T19:24:54.452Z,8.73
2018-10-05T19:27:23.784Z,7.90
2018-10-05T19:29:54.351Z,8.80
2018-10-05T19:32:23.808Z,5.70
2018-10-05T19:34:54.668Z,7.47
2018-10-05T19:37:24.422Z,8.03
2018-10-05T19:39:53.882Z,8.80
2018-10-05T19:42:23.435Z,12.07
2018-10-05T19:44:56.099Z,7.27
2018-10-05T19:47:27.443Z,8.75
2018-10-05T19:49:57.475Z,6.80
2018-10-05T19:52:26.919Z,7.37
2018-10-05T19:54:58.358Z,11.13
2018-10-05T19:57:27.831Z,8.53
2018-10-05T19:59:56.971Z,10.50
2018-10-05T20:02:27.420Z,6.10
2018-10-05T20:04:56.561Z,8.63
2018-10-05T20:07:25.843Z,8.87
2018-10-05T20:09:56.146Z,9.50
2018-10-05T20:12:25.461Z,10.23
2018-10-05T20:14:58.271Z,11.87
2018-10-05T20:17:27.730Z,10.37
2018-10-05T20:19:59.128Z,8.03
2018-10-05T20:22:28.207Z,10.38
2018-10-05T20:24:57.296Z,11.30
2018-10-05T20:27:26.559Z,10.27
2018-10-05T20:29:55.804Z,9.15
2018-10-05T20:32:26.177Z,7.05
2018-10-05T20:34:55.264Z,8.83
2018-10-05T20:37:24.556Z,11.57
2018-10-05T20:39:54.057Z,8.37
2018-10-05T20:42:23.232Z,8.23
2018-10-05T20:44:52.445Z,12.43
2018-10-05T20:47:22.932Z,13.07
2018-10-05T20:49:52.482Z,9.48
2018-10-05T20:52:21.596Z,8.97
2018-10-05T20:54:51.140Z,8.13
2018-10-05T20:57:20.372Z,10.80
2018-10-05T20:59:49.853Z,10.17
2018-10-05T21:02:19.238Z,6.93
2018-10-05T21:04:48.569Z,10.18
2018-10-05T21:07:17.732Z,9.98
2018-10-05T21:09:47.092Z,9.90
2018-10-05T21:12:16.237Z,11.10
2018-10-05T21:14:45.688Z,10.90
2018-10-05T21:17:16.407Z,10.53
2018-10-05T21:19:45.881Z,10.77
2018-10-05T21:22:15.521Z,11.00
2018-10-05T21:24:45.047Z,9.37
2018-10-05T21:27:20.804Z,14.90
2018-10-05T21:29:50.325Z,12.90
2018-10-05T21:32:20.715Z,12.50
2018-10-05T21:34:50.022Z,15.05
2018-10-05T21:37:20.610Z,10.03
2018-10-05T21:39:51.508Z,9.83
2018-10-05T21:42:20.845Z,9.73
2018-10-05T21:44:49.994Z,7.80
2018-10-05T21:47:19.101Z,8.70
2018-10-05T21:49:48.485Z,10.60
2018-10-05T21:52:18.068Z,9.53
2018-10-05T21:54:47.890Z,11.57
2018-10-05T21:57:17.370Z,8.53
2018-10-05T21:59:47.693Z,8.03
2018-10-05T22:02:20.320Z,8.33
2018-10-05T22:04:50.030Z,12.33
2018-10-05T22:07:19.529Z,9.43
2018-10-05T22:09:48.949Z,9.08
2018-10-05T22:12:18.237Z,9.43
2018-10-05T22:14:47.365Z,10.40
2018-10-05T22:17:17.266Z,11.15
2018-10-05T22:19:46.573Z,11.30
2018-10-05T22:22:15.832Z,9.57
2018-10-05T22:24:45.052Z,10.27
2018-10-05T22:27:16.751Z,9.20
2018-10-05T22:29:52.751Z,10.60
2018-10-05T22:32:22.219Z,13.08
2018-10-05T22:34:52.249Z,14.87
2018-10-05T22:37:21.486Z,11.20
2018-10-05T22:39:50.840Z,11.60
2018-10-05T22:42:20.584Z,11.00
2018-10-05T22:44:49.677Z,11.30
2018-10-05T22:47:18.755Z,11.97
2018-10-05T22:49:47.935Z,9.80
2018-10-05T22:52:17.539Z,12.25
2018-10-05T22:54:46.687Z,12.77
2018-10-05T22:57:15.804Z,11.95
2018-10-05T22:59:45.153Z,12.17
2018-10-05T23:02:14.260Z,10.87
2018-10-05T23:04:49.970Z,16.83
2018-10-05T23:07:19.051Z,12.20
2018-10-05T23:09:48.061Z,12.30
2018-10-05T23:12:17.122Z,12.83
2018-10-05T23:14:46.220Z,14.43
2018-10-05T23:17:15.576Z,13.60
2018-10-05T23:19:44.818Z,16.63
2018-10-05T23:22:14.201Z,21.10
2018-10-05T23:24:43.505Z,13.22
2018-10-05T23:27:12.817Z,11.87
2018-10-05T23:29:42.541Z,11.10
2018-10-05T23:32:12.014Z,11.40
2018-10-05T23:34:41.363Z,12.57
2018-10-05T23:37:12.062Z,8.83
2018-10-05T23:39:41.212Z,10.05
2018-10-05T23:42:11.052Z,8.73
2018-10-05T23:44:40.386Z,13.13
2018-10-05T23:47:09.610Z,8.47
2018-10-05T23:49:39.150Z,9.10
2018-10-05T23:52:37.698Z,10.33
2018-10-05T23:55:06.999Z,9.60
2018-10-05T23:57:36.948Z,7.92
